sensor_id;sensor_type;location;lat;lon;timestamp;pressure;altitude;pressure_sealevel;temperature;humidity
30935;BME280;51033;42.648;23.292;2022-10-16T00:01:11;94480.78;;;12.00;48.89
30935;BME280;51033;42.648;23.292;2022-10-16T00:03:40;94485.31;;;11.99;48.74
30935;BME280;51033;42.648;23.292;2022-10-16T00:06:07;94488.63;;;11.96;48.63
30935;BME280;51033;42.648;23.292;2022-10-16T00:08:33;94479.16;;;11.90;48.93
30935;BME280;51033;42.648;23.292;2022-10-16T00:11:11;94470.47;;;11.76;48.93
30935;BME280;51033;42.648;23.292;2022-10-16T00:13:38;94495.66;;;11.92;48.64
30935;BME280;51033;42.648;23.292;2022-10-16T00:16:04;94492.13;;;11.83;49.14
30935;BME280;51033;42.648;23.292;2022-10-16T00:18:31;94493.13;;;11.87;49.08
30935;BME280;51033;42.648;23.292;2022-10-16T00:21:05;94430.13;;;11.47;49.06
30935;BME280;51033;42.648;23.292;2022-10-16T00:23:31;94485.94;;;11.74;49.12
30935;BME280;51033;42.648;23.292;2022-10-16T00:26:04;94495.06;;;11.73;49.13
30935;BME280;51033;42.648;23.292;2022-10-16T00:28:30;94493.47;;;11.72;49.02
30935;BME280;51033;42.648;23.292;2022-10-16T00:30:55;94480.69;;;11.60;49.09
30935;BME280;51033;42.648;23.292;2022-10-16T00:33:21;94508.84;;;11.75;49.07
30935;BME280;51033;42.648;23.292;2022-10-16T00:35:47;94504.13;;;11.72;48.94
30935;BME280;51033;42.648;23.292;2022-10-16T00:38:13;94468.47;;;11.46;49.09
30935;BME280;51033;42.648;23.292;2022-10-16T00:40:39;94508.97;;;11.70;48.95
30935;BME280;51033;42.648;23.292;2022-10-16T00:46:08;94463.28;;;11.41;49.29
30935;BME280;51033;42.648;23.292;2022-10-16T00:48:36;94490.56;;;11.60;49.42
30935;BME280;51033;42.648;23.292;2022-10-16T00:51:01;94497.97;;;11.63;49.19
30935;BME280;51033;42.648;23.292;2022-10-16T00:53:27;94497.63;;;11.65;49.51
30935;BME280;51033;42.648;23.292;2022-10-16T00:55:53;94487.44;;;11.58;49.40
30935;BME280;51033;42.648;23.292;2022-10-16T00:58:19;94459.94;;;11.35;49.19
30935;BME280;51033;42.648;23.292;2022-10-16T01:00:45;94481.22;;;11.49;49.01
30935;BME280;51033;42.648;23.292;2022-10-16T01:03:29;94464.47;;;11.35;49.02
30935;BME280;51033;42.648;23.292;2022-10-16T01:08:44;94511.41;;;11.58;49.41
30935;BME280;51033;42.648;23.292;2022-10-16T01:14:07;94507.28;;;11.52;49.59
30935;BME280;51033;42.648;23.292;2022-10-16T01:16:44;94511.91;;;11.46;49.20
30935;BME280;51033;42.648;23.292;2022-10-16T01:22:07;94496.75;;;11.33;49.49
30935;BME280;51033;42.648;23.292;2022-10-16T01:24:48;94443.38;;;11.02;49.44
30935;BME280;51033;42.648;23.292;2022-10-16T01:27:17;94504.81;;;11.42;49.22
30935;BME280;51033;42.648;23.292;2022-10-16T01:29:53;94467.97;;;11.22;49.28
30935;BME280;51033;42.648;23.292;2022-10-16T01:32:31;94492.41;;;11.37;49.25
30935;BME280;51033;42.648;23.292;2022-10-16T01:35:03;94488.09;;;11.28;49.18
30935;BME280;51033;42.648;23.292;2022-10-16T01:40:19;94484.84;;;11.17;49.32
30935;BME280;51033;42.648;23.292;2022-10-16T01:42:53;94490.88;;;11.23;49.60
30935;BME280;51033;42.648;23.292;2022-10-16T01:45:21;94499.94;;;11.22;49.48
30935;BME280;51033;42.648;23.292;2022-10-16T01:47:49;94495.22;;;11.18;49.56
30935;BME280;51033;42.648;23.292;2022-10-16T01:50:18;94495.28;;;11.27;49.79
30935;BME280;51033;42.648;23.292;2022-10-16T01:52:46;94494.59;;;11.22;49.63
30935;BME280;51033;42.648;23.292;2022-10-16T01:55:14;94504.34;;;11.26;49.43
30935;BME280;51033;42.648;23.292;2022-10-16T01:57:46;94486.59;;;10.99;49.38
30935;BME280;51033;42.648;23.292;2022-10-16T02:00:14;94487.56;;;11.03;49.74
30935;BME280;51033;42.648;23.292;2022-10-16T02:02:44;94506.09;;;11.08;49.63
30935;BME280;51033;42.648;23.292;2022-10-16T02:05:17;94496.50;;;11.07;49.36
30935;BME280;51033;42.648;23.292;2022-10-16T02:07:44;94496.81;;;11.06;49.24
30935;BME280;51033;42.648;23.292;2022-10-16T02:10:09;94488.56;;;10.94;49.43
30935;BME280;51033;42.648;23.292;2022-10-16T02:12:38;94495.25;;;10.91;49.22
30935;BME280;51033;42.648;23.292;2022-10-16T02:15:07;94497.91;;;10.91;49.05
30935;BME280;51033;42.648;23.292;2022-10-16T02:17:32;94525.41;;;11.00;49.21
30935;BME280;51033;42.648;23.292;2022-10-16T02:19:59;94481.50;;;10.62;49.25
30935;BME280;51033;42.648;23.292;2022-10-16T02:22:30;94532.22;;;10.93;49.48
30935;BME280;51033;42.648;23.292;2022-10-16T02:25:25;94533.00;;;10.93;49.51
30935;BME280;51033;42.648;23.292;2022-10-16T02:28:06;94537.25;;;10.94;49.91
30935;BME280;51033;42.648;23.292;2022-10-16T02:31:03;94486.63;;;10.58;49.89
30935;BME280;51033;42.648;23.292;2022-10-16T02:33:27;94541.88;;;10.89;49.63
30935;BME280;51033;42.648;23.292;2022-10-16T02:35:54;94538.25;;;10.85;49.27
30935;BME280;51033;42.648;23.292;2022-10-16T02:38:21;94510.97;;;10.65;49.55
30935;BME280;51033;42.648;23.292;2022-10-16T02:40:48;94522.41;;;10.66;49.43
30935;BME280;51033;42.648;23.292;2022-10-16T02:43:14;94499.81;;;10.50;49.54
30935;BME280;51033;42.648;23.292;2022-10-16T02:45:40;94505.34;;;10.53;49.67
30935;BME280;51033;42.648;23.292;2022-10-16T02:48:06;94514.09;;;10.54;49.80
30935;BME280;51033;42.648;23.292;2022-10-16T02:50:31;94521.47;;;10.57;49.88
30935;BME280;51033;42.648;23.292;2022-10-16T02:52:57;94554.50;;;10.69;49.95
30935;BME280;51033;42.648;23.292;2022-10-16T02:55:22;94532.34;;;10.60;49.75
30935;BME280;51033;42.648;23.292;2022-10-16T02:57:47;94528.19;;;10.54;49.91
30935;BME280;51033;42.648;23.292;2022-10-16T03:00:15;94553.22;;;10.67;49.94
30935;BME280;51033;42.648;23.292;2022-10-16T03:02:40;94554.78;;;10.68;49.96
30935;BME280;51033;42.648;23.292;2022-10-16T03:05:06;94525.81;;;10.53;49.65
30935;BME280;51033;42.648;23.292;2022-10-16T03:07:32;94532.53;;;10.50;49.60
30935;BME280;51033;42.648;23.292;2022-10-16T03:09:57;94548.59;;;10.59;49.56
30935;BME280;51033;42.648;23.292;2022-10-16T03:12:26;94539.91;;;10.53;49.91
30935;BME280;51033;42.648;23.292;2022-10-16T03:14:52;94531.63;;;10.41;49.71
30935;BME280;51033;42.648;23.292;2022-10-16T03:17:18;94554.78;;;10.54;49.79
30935;BME280;51033;42.648;23.292;2022-10-16T03:19:43;94541.50;;;10.41;49.66
30935;BME280;51033;42.648;23.292;2022-10-16T03:22:09;94547.28;;;10.43;49.64
30935;BME280;51033;42.648;23.292;2022-10-16T03:24:34;94543.63;;;10.39;49.74
30935;BME280;51033;42.648;23.292;2022-10-16T03:26:59;94555.84;;;10.40;49.80
30935;BME280;51033;42.648;23.292;2022-10-16T03:29:25;94548.03;;;10.29;49.68
30935;BME280;51033;42.648;23.292;2022-10-16T03:31:51;94570.75;;;10.41;49.41
30935;BME280;51033;42.648;23.292;2022-10-16T03:34:17;94561.84;;;10.31;49.83
30935;BME280;51033;42.648;23.292;2022-10-16T03:36:42;94555.50;;;10.27;49.75
30935;BME280;51033;42.648;23.292;2022-10-16T03:39:08;94574.53;;;10.35;49.95
30935;BME280;51033;42.648;23.292;2022-10-16T03:41:33;94552.16;;;10.22;49.95
30935;BME280;51033;42.648;23.292;2022-10-16T03:43:58;94557.47;;;10.22;49.91
30935;BME280;51033;42.648;23.292;2022-10-16T03:46:24;94536.66;;;10.10;50.11
30935;BME280;51033;42.648;23.292;2022-10-16T03:48:49;94556.59;;;10.26;50.17
30935;BME280;51033;42.648;23.292;2022-10-16T03:51:15;94528.91;;;10.14;50.26
30935;BME280;51033;42.648;23.292;2022-10-16T03:53:40;94561.13;;;10.26;50.43
30935;BME280;51033;42.648;23.292;2022-10-16T03:56:06;94527.19;;;10.04;50.71
30935;BME280;51033;42.648;23.292;2022-10-16T03:58:31;94544.47;;;10.20;50.67
30935;BME280;51033;42.648;23.292;2022-10-16T04:00:57;94527.41;;;10.08;50.96
30935;BME280;51033;42.648;23.292;2022-10-16T04:03:22;94541.47;;;10.08;50.85
30935;BME280;51033;42.648;23.292;2022-10-16T04:05:48;94554.69;;;10.13;50.99
30935;BME280;51033;42.648;23.292;2022-10-16T04:08:13;94541.09;;;10.01;51.05
30935;BME280;51033;42.648;23.292;2022-10-16T04:10:39;94543.56;;;10.11;51.21
30935;BME280;51033;42.648;23.292;2022-10-16T04:13:04;94519.59;;;9.98;51.01
30935;BME280;51033;42.648;23.292;2022-10-16T04:15:30;94547.22;;;10.15;50.57
30935;BME280;51033;42.648;23.292;2022-10-16T04:17:55;94551.66;;;10.20;50.99
30935;BME280;51033;42.648;23.292;2022-10-16T04:20:20;94513.88;;;9.91;50.28
30935;BME280;51033;42.648;23.292;2022-10-16T04:22:46;94530.53;;;9.96;50.30
30935;BME280;51033;42.648;23.292;2022-10-16T04:25:11;94564.75;;;10.16;50.37
30935;BME280;51033;42.648;23.292;2022-10-16T04:27:38;94533.00;;;9.93;50.54
30935;BME280;51033;42.648;23.292;2022-10-16T04:30:04;94563.72;;;10.12;50.87
30935;BME280;51033;42.648;23.292;2022-10-16T04:32:29;94558.00;;;10.05;51.02
30935;BME280;51033;42.648;23.292;2022-10-16T04:34:55;94573.38;;;10.08;50.66
30935;BME280;51033;42.648;23.292;2022-10-16T04:37:25;94543.91;;;9.91;50.64
30935;BME280;51033;42.648;23.292;2022-10-16T04:39:50;94543.91;;;9.91;50.62
30935;BME280;51033;42.648;23.292;2022-10-16T04:42:16;94536.00;;;9.86;50.38
30935;BME280;51033;42.648;23.292;2022-10-16T04:44:42;94577.34;;;10.11;50.44
30935;BME280;51033;42.648;23.292;2022-10-16T04:47:07;94573.97;;;10.05;50.47
30935;BME280;51033;42.648;23.292;2022-10-16T04:49:33;94513.00;;;9.63;50.62
30935;BME280;51033;42.648;23.292;2022-10-16T04:51:58;94536.56;;;9.83;50.59
30935;BME280;51033;42.648;23.292;2022-10-16T04:54:24;94584.59;;;10.05;50.35
30935;BME280;51033;42.648;23.292;2022-10-16T04:56:49;94585.94;;;10.03;50.17
30935;BME280;51033;42.648;23.292;2022-10-16T04:59:19;94585.75;;;9.99;50.30
30935;BME280;51033;42.648;23.292;2022-10-16T05:01:45;94597.38;;;10.03;50.30
30935;BME280;51033;42.648;23.292;2022-10-16T05:04:11;94582.47;;;9.88;50.30
30935;BME280;51033;42.648;23.292;2022-10-16T05:06:37;94605.44;;;9.98;50.53
30935;BME280;51033;42.648;23.292;2022-10-16T05:09:04;94596.53;;;9.89;50.76
30935;BME280;51033;42.648;23.292;2022-10-16T05:11:30;94585.50;;;9.82;50.86
30935;BME280;51033;42.648;23.292;2022-10-16T05:13:56;94609.66;;;9.99;50.92
30935;BME280;51033;42.648;23.292;2022-10-16T05:16:21;94607.59;;;9.96;51.02
30935;BME280;51033;42.648;23.292;2022-10-16T05:18:46;94571.13;;;9.83;51.14
30935;BME280;51033;42.648;23.292;2022-10-16T05:21:12;94609.78;;;10.08;51.52
30935;BME280;51033;42.648;23.292;2022-10-16T05:23:37;94611.56;;;10.12;51.36
30935;BME280;51033;42.648;23.292;2022-10-16T05:26:03;94608.84;;;10.17;51.38
30935;BME280;51033;42.648;23.292;2022-10-16T05:28:29;94590.69;;;10.06;51.29
30935;BME280;51033;42.648;23.292;2022-10-16T05:30:56;94610.84;;;10.25;51.11
30935;BME280;51033;42.648;23.292;2022-10-16T05:33:23;94606.31;;;10.26;51.25
30935;BME280;51033;42.648;23.292;2022-10-16T05:35:48;94598.13;;;10.22;51.30
30935;BME280;51033;42.648;23.292;2022-10-16T05:38:15;94606.72;;;10.33;51.62
30935;BME280;51033;42.648;23.292;2022-10-16T05:40:41;94618.00;;;10.44;51.64
30935;BME280;51033;42.648;23.292;2022-10-16T05:43:06;94594.31;;;10.28;52.02
30935;BME280;51033;42.648;23.292;2022-10-16T05:45:31;94604.00;;;10.38;51.94
30935;BME280;51033;42.648;23.292;2022-10-16T05:47:57;94607.97;;;10.41;51.79
30935;BME280;51033;42.648;23.292;2022-10-16T05:50:22;94607.38;;;10.44;51.63
30935;BME280;51033;42.648;23.292;2022-10-16T05:52:47;94633.63;;;10.64;51.29
30935;BME280;51033;42.648;23.292;2022-10-16T05:55:13;94614.59;;;10.57;51.81
30935;BME280;51033;42.648;23.292;2022-10-16T05:57:38;94611.91;;;10.57;51.92
30935;BME280;51033;42.648;23.292;2022-10-16T06:00:05;94597.53;;;10.44;51.72
30935;BME280;51033;42.648;23.292;2022-10-16T06:02:30;94626.72;;;10.63;51.82
30935;BME280;51033;42.648;23.292;2022-10-16T06:04:55;94653.56;;;10.80;52.07
30935;BME280;51033;42.648;23.292;2022-10-16T06:07:22;94654.13;;;10.77;51.96
30935;BME280;51033;42.648;23.292;2022-10-16T06:09:49;94641.72;;;10.72;52.04
30935;BME280;51033;42.648;23.292;2022-10-16T06:12:15;94648.81;;;10.77;52.20
30935;BME280;51033;42.648;23.292;2022-10-16T06:14:40;94635.13;;;10.70;52.13
30935;BME280;51033;42.648;23.292;2022-10-16T06:17:06;94639.38;;;10.85;52.24
30935;BME280;51033;42.648;23.292;2022-10-16T06:19:31;94649.03;;;10.94;51.98
30935;BME280;51033;42.648;23.292;2022-10-16T06:21:56;94650.41;;;10.92;51.59
30935;BME280;51033;42.648;23.292;2022-10-16T06:24:23;94660.06;;;11.01;51.74
30935;BME280;51033;42.648;23.292;2022-10-16T06:26:49;94672.03;;;11.17;52.12
30935;BME280;51033;42.648;23.292;2022-10-16T06:29:14;94673.69;;;11.27;52.05
30935;BME280;51033;42.648;23.292;2022-10-16T06:31:40;94646.38;;;11.22;52.10
30935;BME280;51033;42.648;23.292;2022-10-16T06:34:05;94674.66;;;11.45;51.83
30935;BME280;51033;42.648;23.292;2022-10-16T06:36:35;94649.25;;;11.39;51.99
30935;BME280;51033;42.648;23.292;2022-10-16T06:39:00;94668.59;;;11.58;51.69
30935;BME280;51033;42.648;23.292;2022-10-16T06:41:25;94642.22;;;11.43;51.38
30935;BME280;51033;42.648;23.292;2022-10-16T06:43:51;94681.00;;;11.76;51.48
30935;BME280;51033;42.648;23.292;2022-10-16T06:46:20;94684.34;;;11.82;51.38
30935;BME280;51033;42.648;23.292;2022-10-16T06:48:46;94678.50;;;11.80;51.25
30935;BME280;51033;42.648;23.292;2022-10-16T06:51:14;94682.34;;;11.87;51.11
30935;BME280;51033;42.648;23.292;2022-10-16T06:53:42;94698.34;;;11.87;51.04
30935;BME280;51033;42.648;23.292;2022-10-16T06:58:43;94707.56;;;12.03;50.76
30935;BME280;51033;42.648;23.292;2022-10-16T07:01:10;94709.56;;;12.12;50.69
30935;BME280;51033;42.648;23.292;2022-10-16T07:03:39;94713.00;;;12.12;50.21
30935;BME280;51033;42.648;23.292;2022-10-16T07:06:06;94710.53;;;12.16;49.96
30935;BME280;51033;42.648;23.292;2022-10-16T07:08:33;94702.34;;;12.12;49.80
30935;BME280;51033;42.648;23.292;2022-10-16T07:11:05;94712.69;;;12.14;49.96
30935;BME280;51033;42.648;23.292;2022-10-16T07:13:33;94681.13;;;12.07;49.99
30935;BME280;51033;42.648;23.292;2022-10-16T07:16:14;94707.81;;;12.29;50.20
30935;BME280;51033;42.648;23.292;2022-10-16T07:18:40;94683.84;;;12.16;50.12
30935;BME280;51033;42.648;23.292;2022-10-16T07:21:09;94705.69;;;12.40;50.07
30935;BME280;51033;42.648;23.292;2022-10-16T07:23:35;94695.03;;;12.40;49.60
30935;BME280;51033;42.648;23.292;2022-10-16T07:26:01;94704.38;;;12.51;49.13
30935;BME280;51033;42.648;23.292;2022-10-16T07:28:27;94704.97;;;12.48;48.86
30935;BME280;51033;42.648;23.292;2022-10-16T07:30:52;94712.25;;;12.56;49.06
30935;BME280;51033;42.648;23.292;2022-10-16T07:33:18;94679.38;;;12.47;48.61
30935;BME280;51033;42.648;23.292;2022-10-16T07:35:51;94722.56;;;12.71;48.91
30935;BME280;51033;42.648;23.292;2022-10-16T07:38:17;94699.00;;;12.65;48.70
30935;BME280;51033;42.648;23.292;2022-10-16T07:40:43;94692.59;;;12.52;48.44
30935;BME280;51033;42.648;23.292;2022-10-16T07:43:10;94695.03;;;12.62;48.58
30935;BME280;51033;42.648;23.292;2022-10-16T07:45:35;94707.19;;;12.68;48.02
30935;BME280;51033;42.648;23.292;2022-10-16T07:48:02;94717.38;;;12.66;48.14
30935;BME280;51033;42.648;23.292;2022-10-16T07:50:27;94717.84;;;12.68;48.36
30935;BME280;51033;42.648;23.292;2022-10-16T07:52:53;94709.97;;;12.63;48.31
30935;BME280;51033;42.648;23.292;2022-10-16T07:55:18;94706.75;;;12.75;48.51
30935;BME280;51033;42.648;23.292;2022-10-16T07:57:44;94668.69;;;12.47;48.21
30935;BME280;51033;42.648;23.292;2022-10-16T08:00:09;94712.47;;;12.60;48.28
30935;BME280;51033;42.648;23.292;2022-10-16T08:02:42;94681.00;;;12.57;48.21
30935;BME280;51033;42.648;23.292;2022-10-16T08:05:07;94721.41;;;12.86;48.47
30935;BME280;51033;42.648;23.292;2022-10-16T08:07:33;94731.22;;;12.91;47.84
30935;BME280;51033;42.648;23.292;2022-10-16T08:09:59;94735.31;;;12.97;47.77
30935;BME280;51033;42.648;23.292;2022-10-16T08:12:25;94711.41;;;12.92;47.80
30935;BME280;51033;42.648;23.292;2022-10-16T08:14:51;94675.16;;;12.68;48.05
30935;BME280;51033;42.648;23.292;2022-10-16T08:17:17;94717.94;;;13.08;48.14
30935;BME280;51033;42.648;23.292;2022-10-16T08:19:46;94703.75;;;12.99;48.05
30935;BME280;51033;42.648;23.292;2022-10-16T08:22:13;94699.53;;;13.06;48.24
30935;BME280;51033;42.648;23.292;2022-10-16T08:28:03;94719.00;;;13.29;47.79
30935;BME280;51033;42.648;23.292;2022-10-16T08:30:28;94709.72;;;13.35;48.47
30935;BME280;51033;42.648;23.292;2022-10-16T08:32:54;94697.66;;;13.38;48.08
30935;BME280;51033;42.648;23.292;2022-10-16T08:35:19;94709.44;;;13.45;47.70
30935;BME280;51033;42.648;23.292;2022-10-16T08:37:45;94713.09;;;13.49;47.15
30935;BME280;51033;42.648;23.292;2022-10-16T08:40:18;94720.25;;;13.71;47.62
30935;BME280;51033;42.648;23.292;2022-10-16T08:51:01;94731.63;;;13.77;46.55
30935;BME280;51033;42.648;23.292;2022-10-16T08:53:36;94722.63;;;13.72;46.09
30935;BME280;51033;42.648;23.292;2022-10-16T08:56:05;94678.66;;;13.39;44.94
30935;BME280;51033;42.648;23.292;2022-10-16T08:58:33;94736.13;;;13.59;43.08
30935;BME280;51033;42.648;23.292;2022-10-16T09:01:02;94711.94;;;13.64;44.03
30935;BME280;51033;42.648;23.292;2022-10-16T09:25:29;94673.38;;;13.65;40.26
30935;BME280;51033;42.648;23.292;2022-10-16T09:27:55;94718.16;;;14.16;40.64
30935;BME280;51033;42.648;23.292;2022-10-16T09:30:22;94712.66;;;14.12;41.15
30935;BME280;51033;42.648;23.292;2022-10-16T09:32:50;94729.00;;;14.28;41.05
30935;BME280;51033;42.648;23.292;2022-10-16T09:35:22;94732.47;;;14.11;40.16
30935;BME280;51033;42.648;23.292;2022-10-16T09:37:53;94730.59;;;14.21;40.25
30935;BME280;51033;42.648;23.292;2022-10-16T09:43:02;94704.94;;;14.28;40.02
30935;BME280;51033;42.648;23.292;2022-10-16T09:45:29;94690.47;;;14.29;40.04
30935;BME280;51033;42.648;23.292;2022-10-16T09:47:54;94714.88;;;14.53;39.21
30935;BME280;51033;42.648;23.292;2022-10-16T09:50:25;94711.59;;;14.56;38.93
30935;BME280;51033;42.648;23.292;2022-10-16T09:53:06;94659.78;;;14.27;38.67
30935;BME280;51033;42.648;23.292;2022-10-16T09:55:31;94691.25;;;14.47;39.11
30935;BME280;51033;42.648;23.292;2022-10-16T09:57:56;94690.63;;;14.58;39.89
30935;BME280;51033;42.648;23.292;2022-10-16T10:00:23;94690.31;;;14.51;38.84
30935;BME280;51033;42.648;23.292;2022-10-16T10:02:49;94708.25;;;14.77;38.67
30935;BME280;51033;42.648;23.292;2022-10-16T10:05:28;94667.47;;;14.45;38.38
30935;BME280;51033;42.648;23.292;2022-10-16T10:07:56;94681.16;;;14.52;37.97
30935;BME280;51033;42.648;23.292;2022-10-16T10:10:25;94663.53;;;14.34;37.67
30935;BME280;51033;42.648;23.292;2022-10-16T10:12:52;94702.75;;;14.73;38.23
30935;BME280;51033;42.648;23.292;2022-10-16T10:15:17;94670.94;;;14.63;38.44
30935;BME280;51033;42.648;23.292;2022-10-16T10:17:56;94697.69;;;14.89;38.38
30935;BME280;51033;42.648;23.292;2022-10-16T10:20:30;94697.81;;;14.92;38.63
30935;BME280;51033;42.648;23.292;2022-10-16T10:22:59;94693.25;;;14.93;38.52
30935;BME280;51033;42.648;23.292;2022-10-16T10:39:25;94686.22;;;15.26;37.03
30935;BME280;51033;42.648;23.292;2022-10-16T10:47:31;94678.47;;;15.33;36.73
30935;BME280;51033;42.648;23.292;2022-10-16T10:55:43;94597.13;;;15.00;35.81
30935;BME280;51033;42.648;23.292;2022-10-16T11:06:12;94639.41;;;15.62;35.97
30935;BME280;51033;42.648;23.292;2022-10-16T11:08:43;94655.72;;;15.77;35.75
30935;BME280;51033;42.648;23.292;2022-10-16T11:16:38;94645.31;;;15.76;34.33
30935;BME280;51033;42.648;23.292;2022-10-16T11:19:13;94627.22;;;15.73;33.74
30935;BME280;51033;42.648;23.292;2022-10-16T11:21:45;94618.31;;;15.81;33.88
30935;BME280;51033;42.648;23.292;2022-10-16T11:27:00;94640.91;;;16.01;33.06
30935;BME280;51033;42.648;23.292;2022-10-16T11:29:31;94569.97;;;15.69;33.22
30935;BME280;51033;42.648;23.292;2022-10-16T11:32:01;94639.44;;;16.24;33.35
30935;BME280;51033;42.648;23.292;2022-10-16T11:34:37;94645.47;;;16.21;31.70
30935;BME280;51033;42.648;23.292;2022-10-16T11:37:22;94603.59;;;16.08;31.85
30935;BME280;51033;42.648;23.292;2022-10-16T11:39:50;94610.66;;;16.12;32.18
30935;BME280;51033;42.648;23.292;2022-10-16T11:42:22;94646.13;;;16.39;31.65
30935;BME280;51033;42.648;23.292;2022-10-16T11:55:40;94645.03;;;16.40;30.55
30935;BME280;51033;42.648;23.292;2022-10-16T11:58:41;94644.41;;;16.43;31.02
30935;BME280;51033;42.648;23.292;2022-10-16T12:01:33;94646.84;;;16.48;31.19
30935;BME280;51033;42.648;23.292;2022-10-16T12:04:34;94646.66;;;16.53;31.04
30935;BME280;51033;42.648;23.292;2022-10-16T12:07:14;94596.47;;;16.33;30.78
30935;BME280;51033;42.648;23.292;2022-10-16T12:09:41;94597.81;;;16.39;30.99
30935;BME280;51033;42.648;23.292;2022-10-16T12:12:25;94613.78;;;16.56;30.35
30935;BME280;51033;42.648;23.292;2022-10-16T12:17:44;94623.31;;;16.65;31.29
30935;BME280;51033;42.648;23.292;2022-10-16T12:22:46;94602.78;;;16.49;31.93
30935;BME280;51033;42.648;23.292;2022-10-16T12:25:36;94630.91;;;16.63;31.14
30935;BME280;51033;42.648;23.292;2022-10-16T12:28:27;94652.97;;;16.69;31.72
30935;BME280;51033;42.648;23.292;2022-10-16T12:33:32;94655.16;;;16.88;31.88
30935;BME280;51033;42.648;23.292;2022-10-16T12:36:00;94645.31;;;16.92;32.34
30935;BME280;51033;42.648;23.292;2022-10-16T12:38:29;94649.47;;;17.01;32.45
30935;BME280;51033;42.648;23.292;2022-10-16T12:41:05;94648.59;;;17.09;31.26
30935;BME280;51033;42.648;23.292;2022-10-16T12:43:45;94633.41;;;17.13;31.36
30935;BME280;51033;42.648;23.292;2022-10-16T12:48:37;94618.56;;;16.95;30.17
30935;BME280;51033;42.648;23.292;2022-10-16T12:51:33;94647.03;;;17.08;29.67
30935;BME280;51033;42.648;23.292;2022-10-16T12:54:00;94642.69;;;17.16;30.40
30935;BME280;51033;42.648;23.292;2022-10-16T12:59:29;94656.28;;;17.32;30.62
30935;BME280;51033;42.648;23.292;2022-10-16T13:02:32;94658.09;;;17.40;30.24
30935;BME280;51033;42.648;23.292;2022-10-16T13:10:50;94659.19;;;17.63;31.73
30935;BME280;51033;42.648;23.292;2022-10-16T13:17:02;94661.56;;;17.52;30.41
30935;BME280;51033;42.648;23.292;2022-10-16T13:30:00;94635.91;;;17.55;31.41
30935;BME280;51033;42.648;23.292;2022-10-16T13:32:27;94636.78;;;17.59;31.21
30935;BME280;51033;42.648;23.292;2022-10-16T13:34:52;94657.75;;;17.78;31.59
30935;BME280;51033;42.648;23.292;2022-10-16T13:37:21;94629.63;;;17.63;31.79
30935;BME280;51033;42.648;23.292;2022-10-16T13:39:47;94627.34;;;17.65;31.52
30935;BME280;51033;42.648;23.292;2022-10-16T13:42:25;94664.66;;;17.91;30.95
30935;BME280;51033;42.648;23.292;2022-10-16T13:44:53;94659.41;;;17.82;31.08
30935;BME280;51033;42.648;23.292;2022-10-16T13:47:26;94637.88;;;17.82;31.45
30935;BME280;51033;42.648;23.292;2022-10-16T13:50:19;94666.25;;;18.04;31.69
30935;BME280;51033;42.648;23.292;2022-10-16T13:52:45;94662.31;;;18.14;31.68
30935;BME280;51033;42.648;23.292;2022-10-16T13:57:37;94640.56;;;18.07;30.80
30935;BME280;51033;42.648;23.292;2022-10-16T14:00:03;94634.97;;;17.99;30.87
30935;BME280;51033;42.648;23.292;2022-10-16T14:02:34;94671.94;;;18.27;31.26
30935;BME280;51033;42.648;23.292;2022-10-16T14:05:02;94667.00;;;18.17;30.73
30935;BME280;51033;42.648;23.292;2022-10-16T14:07:32;94674.28;;;18.28;31.58
30935;BME280;51033;42.648;23.292;2022-10-16T14:10:18;94671.00;;;18.35;31.93
30935;BME280;51033;42.648;23.292;2022-10-16T14:12:53;94673.94;;;18.30;33.43
30935;BME280;51033;42.648;23.292;2022-10-16T14:15:20;94668.59;;;18.18;32.88
30935;BME280;51033;42.648;23.292;2022-10-16T14:17:50;94658.06;;;18.13;33.16
30935;BME280;51033;42.648;23.292;2022-10-16T14:20:15;94659.41;;;18.07;32.75
30935;BME280;51033;42.648;23.292;2022-10-16T14:22:42;94645.72;;;17.99;32.32
30935;BME280;51033;42.648;23.292;2022-10-16T14:28:18;94683.16;;;18.17;32.19
30935;BME280;51033;42.648;23.292;2022-10-16T14:33:34;94686.88;;;18.00;34.06
30935;BME280;51033;42.648;23.292;2022-10-16T14:38:34;94667.38;;;17.67;32.83
30935;BME280;51033;42.648;23.292;2022-10-16T14:41:00;94671.53;;;17.64;33.07
30935;BME280;51033;42.648;23.292;2022-10-16T14:43:34;94684.31;;;17.67;32.35
30935;BME280;51033;42.648;23.292;2022-10-16T14:46:03;94700.22;;;17.72;32.24
30935;BME280;51033;42.648;23.292;2022-10-16T14:48:29;94697.19;;;17.61;33.69
30935;BME280;51033;42.648;23.292;2022-10-16T14:50:55;94704.59;;;17.52;34.33
30935;BME280;51033;42.648;23.292;2022-10-16T14:53:20;94702.56;;;17.49;34.50
30935;BME280;51033;42.648;23.292;2022-10-16T14:55:48;94687.63;;;17.28;34.36
30935;BME280;51033;42.648;23.292;2022-10-16T14:58:21;94717.09;;;17.36;33.94
30935;BME280;51033;42.648;23.292;2022-10-16T15:00:48;94694.13;;;17.14;34.62
30935;BME280;51033;42.648;23.292;2022-10-16T15:03:14;94721.22;;;17.22;35.22
30935;BME280;51033;42.648;23.292;2022-10-16T15:05:40;94656.34;;;16.66;35.81
30935;BME280;51033;42.648;23.292;2022-10-16T15:08:05;94717.59;;;17.05;35.66
30935;BME280;51033;42.648;23.292;2022-10-16T15:10:33;94726.50;;;16.97;35.65
30935;BME280;51033;42.648;23.292;2022-10-16T15:13:01;94710.00;;;16.87;35.93
30935;BME280;51033;42.648;23.292;2022-10-16T15:15:46;94720.63;;;16.83;35.73
30935;BME280;51033;42.648;23.292;2022-10-16T15:18:12;94717.91;;;16.71;36.00
30935;BME280;51033;42.648;23.292;2022-10-16T15:20:40;94713.34;;;16.51;35.53
30935;BME280;51033;42.648;23.292;2022-10-16T15:23:13;94728.34;;;16.52;35.28
30935;BME280;51033;42.648;23.292;2022-10-16T15:25:53;94740.31;;;16.54;35.92
30935;BME280;51033;42.648;23.292;2022-10-16T15:28:20;94738.38;;;16.43;35.68